Time;durP1;ratioP1;P1;durP2;ratioP2;P2;SDS_P1;SDS_P2;PMS_P1;PMS_P2;Temp;Humidity;BMP_temperature;BMP_pressure;BME280_temperature;BME280_humidity;BME280_pressure;Samples;Min_cycle;Max_cycle;Signal;HPM_P1;HPM_P2
2020/12/18 00:01:27;0.00;0.00;0.62;0.00;0.00;0.62;;;;;25.90;37.80;;;;;;2253825;61;5564;-77
2020/12/18 00:03:54;0.00;0.00;0.62;0.00;0.00;0.62;;;;;25.90;37.90;;;;;;2255493;61;6217;-70
2020/12/18 00:06:21;0.00;0.00;0.62;0.00;0.00;0.62;;;;;25.90;38.00;;;;;;2257073;61;6188;-75
2020/12/18 00:08:48;0.00;0.00;0.62;0.00;0.00;0.62;;;;;25.90;37.90;;;;;;2248740;61;8041;-67
2020/12/18 00:11:26;0.00;0.00;0.62;0.00;0.00;0.62;;;;;25.90;38.00;;;;;;2257572;61;6158;-68
2020/12/18 00:13:53;157511.00;0.53;272.75;0.00;0.00;0.62;;;;;25.80;37.90;;;;;;2255077;61;6351;-70
2020/12/18 00:16:21;0.00;0.00;0.62;0.00;0.00;0.62;;;;;25.90;37.90;;;;;;2255582;61;6097;-71
2020/12/18 00:18:48;0.00;0.00;0.62;0.00;0.00;0.62;;;;;25.80;37.90;;;;;;2252587;61;8072;-70
2020/12/18 00:21:22;0.00;0.00;0.62;0.00;0.00;0.62;;;;;25.80;37.90;;;;;;2255872;61;6382;-72
2020/12/18 00:23:52;0.00;0.00;0.62;0.00;0.00;0.62;;;;;25.80;38.00;;;;;;2255153;61;7717;-72
2020/12/18 00:26:19;0.00;0.00;0.62;0.00;0.00;0.62;;;;;25.80;38.00;;;;;;2254672;61;7867;-73
2020/12/18 00:28:46;0.00;0.00;0.62;0.00;0.00;0.62;;;;;25.80;37.90;;;;;;2256088;61;6091;-70
2020/12/18 00:31:13;0.00;0.00;0.62;0.00;0.00;0.62;;;;;25.80;37.90;;;;;;2253984;61;5406;-72
2020/12/18 00:33:39;0.00;0.00;0.62;0.00;0.00;0.62;;;;;25.80;37.90;;;;;;2252749;61;5981;-74
2020/12/18 00:36:10;0.00;0.00;0.62;0.00;0.00;0.62;;;;;25.80;37.90;;;;;;2253980;61;6142;-75
2020/12/18 00:38:37;0.00;0.00;0.62;0.00;0.00;0.62;;;;;25.80;37.90;;;;;;2254739;61;7864;-68
2020/12/18 00:41:03;0.00;0.00;0.62;0.00;0.00;0.62;;;;;25.80;37.90;;;;;;2254395;61;6268;-74
2020/12/18 00:43:30;0.00;0.00;0.62;0.00;0.00;0.62;;;;;25.80;37.90;;;;;;2256547;61;6159;-66
2020/12/18 00:45:56;0.00;0.00;0.62;0.00;0.00;0.62;;;;;25.80;38.00;;;;;;2254170;61;7571;-67
2020/12/18 00:48:23;0.00;0.00;0.62;0.00;0.00;0.62;;;;;25.80;38.00;;;;;;2259041;61;5964;-73
2020/12/18 00:50:54;0.00;0.00;0.62;0.00;0.00;0.62;;;;;25.70;38.00;;;;;;2250586;61;6396;-68
2020/12/18 00:53:20;0.00;0.00;0.62;0.00;0.00;0.62;;;;;25.70;38.10;;;;;;2253781;61;7813;-67
2020/12/18 00:55:46;0.00;0.00;0.62;0.00;0.00;0.62;;;;;25.70;38.00;;;;;;2255064;61;7730;-73
2020/12/18 00:58:13;0.00;0.00;0.62;0.00;0.00;0.62;;;;;25.70;38.00;;;;;;2252720;61;7991;-67
2020/12/18 01:00:39;0.00;0.00;0.62;0.00;0.00;0.62;;;;;25.70;38.00;;;;;;2252517;61;7955;-68
2020/12/18 01:03:06;0.00;0.00;0.62;0.00;0.00;0.62;;;;;25.70;37.90;;;;;;2254885;61;5814;-71
2020/12/18 01:05:32;0.00;0.00;0.62;0.00;0.00;0.62;;;;;25.70;38.00;;;;;;2255416;61;7739;-71
2020/12/18 01:07:58;0.00;0.00;0.62;0.00;0.00;0.62;;;;;25.70;38.00;;;;;;2255624;61;5615;-68
2020/12/18 01:10:28;0.00;0.00;0.62;0.00;0.00;0.62;;;;;25.70;38.50;;;;;;2255056;61;7812;-67
2020/12/18 01:12:54;0.00;0.00;0.62;0.00;0.00;0.62;;;;;25.60;37.90;;;;;;2252786;61;6221;-70
2020/12/18 01:15:21;0.00;0.00;0.62;0.00;0.00;0.62;;;;;25.60;38.00;;;;;;2256604;61;6056;-67
2020/12/18 01:17:47;0.00;0.00;0.62;0.00;0.00;0.62;;;;;25.70;38.00;;;;;;2251567;61;6862;-70
2020/12/18 01:20:13;0.00;0.00;0.62;0.00;0.00;0.62;;;;;25.70;37.90;;;;;;2251685;61;8028;-71
2020/12/18 01:22:40;0.00;0.00;0.62;0.00;0.00;0.62;;;;;25.70;37.90;;;;;;2259836;61;7702;-68
2020/12/18 01:25:08;0.00;0.00;0.62;0.00;0.00;0.62;;;;;25.60;37.90;;;;;;2249189;61;8975;-69
2020/12/18 01:27:35;0.00;0.00;0.62;0.00;0.00;0.62;;;;;25.60;37.90;;;;;;2257123;61;5830;-67
2020/12/18 01:30:02;0.00;0.00;0.62;0.00;0.00;0.62;;;;;25.60;38.00;;;;;;2252644;61;6914;-71
2020/12/18 01:32:28;0.00;0.00;0.62;0.00;0.00;0.62;;;;;25.60;38.00;;;;;;2255584;61;4633;-72
2020/12/18 01:34:55;43417.00;0.14;75.80;0.00;0.00;0.62;;;;;25.50;38.00;;;;;;2254846;61;7815;-68
2020/12/18 01:37:21;0.00;0.00;0.62;0.00;0.00;0.62;;;;;25.60;38.00;;;;;;2252039;61;6079;-68
2020/12/18 01:39:47;0.00;0.00;0.62;0.00;0.00;0.62;;;;;25.60;37.90;;;;;;2251576;61;6050;-70
2020/12/18 01:42:14;0.00;0.00;0.62;0.00;0.00;0.62;;;;;25.60;38.30;;;;;;2256142;61;7938;-70
2020/12/18 01:44:40;0.00;0.00;0.62;0.00;0.00;0.62;;;;;25.50;38.00;;;;;;2256472;61;7111;-69
2020/12/18 01:47:25;0.00;0.00;0.62;0.00;0.00;0.62;;;;;25.50;37.90;;;;;;2256581;61;5948;-70
2020/12/18 01:49:52;0.00;0.00;0.62;0.00;0.00;0.62;;;;;25.50;37.90;;;;;;2255754;61;6750;-70
2020/12/18 01:52:19;0.00;0.00;0.62;0.00;0.00;0.62;;;;;25.50;37.90;;;;;;2258781;61;5910;-68
2020/12/18 01:54:46;0.00;0.00;0.62;0.00;0.00;0.62;;;;;25.50;37.80;;;;;;2251604;61;8088;-74
2020/12/18 01:57:17;22512.00;0.08;39.62;0.00;0.00;0.62;;;;;25.50;37.90;;;;;;2256350;61;6710;-70
2020/12/18 01:59:44;0.00;0.00;0.62;0.00;0.00;0.62;;;;;25.50;38.00;;;;;;2255362;61;8681;-73
2020/12/18 02:02:11;0.00;0.00;0.62;0.00;0.00;0.62;;;;;25.50;37.90;;;;;;2254589;61;8184;-69
2020/12/18 02:04:43;0.00;0.00;0.62;0.00;0.00;0.62;;;;;25.50;38.00;;;;;;2257918;47;8164;-70
2020/12/18 02:07:15;0.00;0.00;0.62;0.00;0.00;0.62;;;;;25.50;37.90;;;;;;2255311;61;1647;-70
2020/12/18 02:09:43;0.00;0.00;0.62;0.00;0.00;0.62;;;;;25.50;37.90;;;;;;2258852;61;1886;-69
2020/12/18 02:12:10;0.00;0.00;0.62;0.00;0.00;0.62;;;;;25.50;37.90;;;;;;2255896;61;1759;-69
2020/12/18 02:14:37;0.00;0.00;0.62;0.00;0.00;0.62;;;;;25.50;38.00;;;;;;2255180;61;1995;-70
2020/12/18 02:17:03;0.00;0.00;0.62;0.00;0.00;0.62;;;;;25.50;38.00;;;;;;2256060;61;1526;-72
2020/12/18 02:19:30;0.00;0.00;0.62;0.00;0.00;0.62;;;;;25.50;37.80;;;;;;2255433;61;1511;-72
2020/12/18 02:22:16;0.00;0.00;0.62;0.00;0.00;0.62;;;;;25.50;37.80;;;;;;2255963;61;1102;-71
2020/12/18 02:25:01;125370.00;0.42;217.34;0.00;0.00;0.62;;;;;25.50;37.90;;;;;;2256059;61;1991;-69
2020/12/18 02:27:28;0.00;0.00;0.62;0.00;0.00;0.62;;;;;25.50;37.90;;;;;;2255959;61;1737;-71
2020/12/18 02:29:54;0.00;0.00;0.62;0.00;0.00;0.62;;;;;25.50;38.00;;;;;;2259382;61;2029;-72
2020/12/18 02:32:22;0.00;0.00;0.62;0.00;0.00;0.62;;;;;25.40;37.90;;;;;;2255854;61;1933;-70
2020/12/18 02:34:48;0.00;0.00;0.62;0.00;0.00;0.62;;;;;25.40;38.00;;;;;;2256062;61;1607;-69
2020/12/18 02:37:15;0.00;0.00;0.62;0.00;0.00;0.62;;;;;25.40;38.40;;;;;;2256056;61;1549;-71
2020/12/18 02:39:45;0.00;0.00;0.62;0.00;0.00;0.62;;;;;25.40;37.90;;;;;;2255791;61;1915;-71
2020/12/18 02:42:15;0.00;0.00;0.62;0.00;0.00;0.62;;;;;25.50;37.90;;;;;;2256126;61;1440;-72
2020/12/18 02:44:41;0.00;0.00;0.62;0.00;0.00;0.62;;;;;25.50;37.90;;;;;;2255764;61;1342;-69
2020/12/18 02:47:07;0.00;0.00;0.62;0.00;0.00;0.62;;;;;25.40;37.80;;;;;;2255720;61;1885;-70
2020/12/18 02:49:34;0.00;0.00;0.62;0.00;0.00;0.62;;;;;25.50;37.90;;;;;;2255990;61;1473;-69
2020/12/18 02:52:00;0.00;0.00;0.62;0.00;0.00;0.62;;;;;25.40;37.90;;;;;;2256052;61;1447;-70
2020/12/18 02:54:30;0.00;0.00;0.62;0.00;0.00;0.62;;;;;25.40;37.90;;;;;;2256339;61;1954;-70
2020/12/18 03:00:44;0.00;0.00;0.62;0.00;0.00;0.62;;;;;25.40;37.90;;;;;;2255475;61;1295;-71
2020/12/18 03:03:10;0.00;0.00;0.62;0.00;0.00;0.62;;;;;25.30;37.80;;;;;;2251147;61;4040;-69
2020/12/18 03:05:37;0.00;0.00;0.62;0.00;0.00;0.62;;;;;25.30;37.90;;;;;;2236274;61;8010;-69
2020/12/18 03:08:03;0.00;0.00;0.62;0.00;0.00;0.62;;;;;25.30;37.90;;;;;;2241679;61;7858;-69
2020/12/18 03:10:29;0.00;0.00;0.62;0.00;0.00;0.62;;;;;25.30;37.90;;;;;;2244152;61;7457;-70
2020/12/18 03:12:56;0.00;0.00;0.62;0.00;0.00;0.62;;;;;25.40;37.80;;;;;;2246431;61;6109;-69
2020/12/18 03:15:22;0.00;0.00;0.62;0.00;0.00;0.62;;;;;25.40;37.80;;;;;;2244151;61;7405;-69
2020/12/18 03:17:49;0.00;0.00;0.62;0.00;0.00;0.62;;;;;25.30;37.80;;;;;;2244338;61;6070;-71
2020/12/18 03:20:19;0.00;0.00;0.62;0.00;0.00;0.62;;;;;25.30;37.80;;;;;;2244962;61;5932;-71
2020/12/18 03:22:46;0.00;0.00;0.62;0.00;0.00;0.62;;;;;25.40;37.90;;;;;;2242119;61;6241;-70
2020/12/18 03:25:13;0.00;0.00;0.62;0.00;0.00;0.62;;;;;25.30;37.90;;;;;;2243468;61;5807;-71
2020/12/18 03:27:42;0.00;0.00;0.62;0.00;0.00;0.62;;;;;25.30;37.80;;;;;;2244988;61;5761;-69
2020/12/18 03:30:08;0.00;0.00;0.62;0.00;0.00;0.62;;;;;25.30;37.70;;;;;;2247489;61;5625;-71
2020/12/18 03:32:35;0.00;0.00;0.62;0.00;0.00;0.62;;;;;25.30;37.80;;;;;;2249387;61;7835;-70
2020/12/18 03:35:01;0.00;0.00;0.62;0.00;0.00;0.62;;;;;25.30;37.70;;;;;;2243749;61;7456;-70
2020/12/18 03:37:28;0.00;0.00;0.62;0.00;0.00;0.62;;;;;25.40;37.70;;;;;;2247912;61;7737;-71
2020/12/18 03:39:54;0.00;0.00;0.62;0.00;0.00;0.62;;;;;25.30;37.70;;;;;;2245419;61;7957;-72
2020/12/18 03:42:24;0.00;0.00;0.62;0.00;0.00;0.62;;;;;25.30;37.80;;;;;;2244879;61;5890;-75
2020/12/18 03:44:51;0.00;0.00;0.62;0.00;0.00;0.62;;;;;25.30;38.30;;;;;;2242311;61;7577;-72
2020/12/18 03:47:17;0.00;0.00;0.62;0.00;0.00;0.62;;;;;25.30;37.70;;;;;;2240454;61;7602;-71
2020/12/18 03:49:44;0.00;0.00;0.62;0.00;0.00;0.62;;;;;25.30;37.70;;;;;;2242294;61;7695;-70
2020/12/18 03:52:10;0.00;0.00;0.62;0.00;0.00;0.62;;;;;25.30;37.70;;;;;;2244791;61;5787;-72
2020/12/18 03:54:37;0.00;0.00;0.62;0.00;0.00;0.62;;;;;25.30;37.70;;;;;;2242394;61;5999;-71
2020/12/18 03:57:08;0.00;0.00;0.62;0.00;0.00;0.62;;;;;25.40;37.70;;;;;;2246680;61;6309;-71
2020/12/18 03:59:37;0.00;0.00;0.62;0.00;0.00;0.62;;;;;25.30;37.60;;;;;;2245719;61;7682;-71
2020/12/18 04:02:04;0.00;0.00;0.62;0.00;0.00;0.62;;;;;25.30;37.50;;;;;;2248199;61;5913;-70
2020/12/18 04:04:30;0.00;0.00;0.62;0.00;0.00;0.62;;;;;25.30;37.60;;;;;;2242068;61;7849;-69
2020/12/18 04:06:57;0.00;0.00;0.62;0.00;0.00;0.62;;;;;25.30;37.70;;;;;;2243240;61;7660;-70
2020/12/18 04:09:23;394617.00;1.32;680.55;145744.00;0.49;252.47;;;;;25.30;37.70;;;;;;2244788;61;7491;-71
2020/12/18 04:11:49;0.00;0.00;0.62;0.00;0.00;0.62;;;;;25.30;37.60;;;;;;2242036;61;7488;-69
2020/12/18 04:14:19;0.00;0.00;0.62;0.00;0.00;0.62;;;;;25.30;37.60;;;;;;2245843;61;5916;-69
2020/12/18 04:16:46;0.00;0.00;0.62;0.00;0.00;0.62;;;;;25.30;37.70;;;;;;2240486;61;6429;-73
2020/12/18 04:19:12;0.00;0.00;0.62;0.00;0.00;0.62;;;;;25.30;37.60;;;;;;2237218;61;9611;-72
2020/12/18 04:21:38;0.00;0.00;0.62;0.00;0.00;0.62;;;;;25.30;37.60;;;;;;2244692;61;5970;-73
2020/12/18 04:24:05;0.00;0.00;0.62;0.00;0.00;0.62;;;;;25.30;37.70;;;;;;2245004;61;5982;-71
2020/12/18 04:26:35;0.00;0.00;0.62;0.00;0.00;0.62;;;;;25.30;37.60;;;;;;2243939;61;6080;-71
2020/12/18 04:29:02;0.00;0.00;0.62;0.00;0.00;0.62;;;;;25.30;38.30;;;;;;2244768;61;6108;-71
2020/12/18 04:31:28;0.00;0.00;0.62;0.00;0.00;0.62;;;;;25.20;37.60;;;;;;2244186;61;7598;-70
2020/12/18 04:33:54;0.00;0.00;0.62;0.00;0.00;0.62;;;;;25.30;37.60;;;;;;2245607;61;7640;-70
2020/12/18 04:36:21;0.00;0.00;0.62;0.00;0.00;0.62;;;;;25.30;37.50;;;;;;2248664;61;6415;-69
2020/12/18 04:38:47;0.00;0.00;0.62;0.00;0.00;0.62;;;;;25.40;37.40;;;;;;2243722;61;5983;-70
2020/12/18 04:41:15;0.00;0.00;0.62;0.00;0.00;0.62;;;;;25.40;37.30;;;;;;2243653;61;7541;-69
2020/12/18 04:43:42;0.00;0.00;0.62;0.00;0.00;0.62;;;;;25.40;37.90;;;;;;2248270;61;7825;-69
2020/12/18 04:46:10;0.00;0.00;0.62;0.00;0.00;0.62;;;;;25.40;37.40;;;;;;2244916;61;7711;-70
2020/12/18 04:48:37;0.00;0.00;0.62;0.00;0.00;0.62;;;;;25.30;37.20;;;;;;2245227;61;5800;-69
2020/12/18 04:51:04;0.00;0.00;0.62;0.00;0.00;0.62;;;;;25.30;37.30;;;;;;2247954;61;7443;-69
2020/12/18 04:53:39;0.00;0.00;0.62;0.00;0.00;0.62;;;;;25.30;37.30;;;;;;2247725;61;5616;-69
2020/12/18 04:56:10;0.00;0.00;0.62;0.00;0.00;0.62;;;;;25.20;37.40;;;;;;2244456;61;7746;-69
2020/12/18 04:58:38;0.00;0.00;0.62;0.00;0.00;0.62;;;;;25.20;37.40;;;;;;2248869;61;5940;-70
2020/12/18 05:01:06;0.00;0.00;0.62;0.00;0.00;0.62;;;;;25.30;37.40;;;;;;2243602;61;7761;-69
2020/12/18 05:03:34;0.00;0.00;0.62;0.00;0.00;0.62;;;;;25.20;37.40;;;;;;2245459;61;5796;-70
2020/12/18 05:06:05;0.00;0.00;0.62;0.00;0.00;0.62;;;;;25.30;37.40;;;;;;2244682;61;4201;-70
2020/12/18 05:08:32;0.00;0.00;0.62;0.00;0.00;0.62;;;;;25.20;37.40;;;;;;2247219;61;7698;-70
2020/12/18 05:10:58;0.00;0.00;0.62;0.00;0.00;0.62;;;;;25.20;37.40;;;;;;2247161;61;5774;-69
2020/12/18 05:13:25;0.00;0.00;0.62;0.00;0.00;0.62;;;;;25.20;37.30;;;;;;2244450;61;5825;-70
2020/12/18 05:15:52;0.00;0.00;0.62;0.00;0.00;0.62;;;;;25.30;37.30;;;;;;2239822;61;7741;-70
2020/12/18 05:18:22;0.00;0.00;0.62;0.00;0.00;0.62;;;;;25.30;37.20;;;;;;2243398;61;6223;-71
2020/12/18 05:20:49;0.00;0.00;0.62;0.00;0.00;0.62;;;;;25.30;37.20;;;;;;2244368;61;7486;-70
2020/12/18 05:23:15;0.00;0.00;0.62;0.00;0.00;0.62;;;;;25.30;37.10;;;;;;2245485;61;7437;-70
2020/12/18 05:25:42;0.00;0.00;0.62;0.00;0.00;0.62;;;;;25.30;37.00;;;;;;2247908;61;7930;-70
2020/12/18 05:28:20;0.00;0.00;0.62;0.00;0.00;0.62;;;;;25.30;37.00;;;;;;2240890;61;6104;-71
2020/12/18 05:30:54;0.00;0.00;0.62;0.00;0.00;0.62;;;;;25.30;37.00;;;;;;2248847;61;7531;-73
2020/12/18 05:33:24;0.00;0.00;0.62;0.00;0.00;0.62;;;;;25.30;37.00;;;;;;2245449;61;5750;-70
2020/12/18 05:35:52;0.00;0.00;0.62;0.00;0.00;0.62;;;;;25.30;37.00;;;;;;2246225;61;7902;-71
2020/12/18 05:38:22;0.00;0.00;0.62;0.00;0.00;0.62;;;;;25.40;36.90;;;;;;2245615;61;7634;-71
2020/12/18 05:40:49;0.00;0.00;0.62;0.00;0.00;0.62;;;;;25.30;37.00;;;;;;2247866;61;7860;-70
2020/12/18 05:43:15;0.00;0.00;0.62;0.00;0.00;0.62;;;;;25.30;37.00;;;;;;2248806;61;7612;-71
2020/12/18 05:45:42;0.00;0.00;0.62;0.00;0.00;0.62;;;;;25.30;36.90;;;;;;2246120;61;7635;-71
2020/12/18 05:48:08;0.00;0.00;0.62;0.00;0.00;0.62;;;;;25.30;37.00;;;;;;2248579;61;7835;-72
2020/12/18 05:50:37;0.00;0.00;0.62;0.00;0.00;0.62;;;;;25.30;36.90;;;;;;2244681;61;5920;-70
2020/12/18 05:53:06;0.00;0.00;0.62;0.00;0.00;0.62;;;;;25.40;36.80;;;;;;2248087;61;5801;-71
2020/12/18 05:55:41;0.00;0.00;0.62;0.00;0.00;0.62;;;;;25.50;37.10;;;;;;2246489;61;5556;-71
2020/12/18 05:58:12;0.00;0.00;0.62;0.00;0.00;0.62;;;;;25.50;37.00;;;;;;2245611;61;7592;-71
2020/12/18 06:00:41;0.00;0.00;0.62;0.00;0.00;0.62;;;;;25.50;36.70;;;;;;2245949;61;4619;-74
2020/12/18 06:03:11;0.00;0.00;0.62;0.00;0.00;0.62;;;;;25.60;36.60;;;;;;2245787;61;7501;-69
2020/12/18 06:05:38;0.00;0.00;0.62;0.00;0.00;0.62;;;;;25.70;36.40;;;;;;2244521;61;7880;-70
2020/12/18 06:08:19;0.00;0.00;0.62;0.00;0.00;0.62;;;;;25.80;36.20;;;;;;2244184;61;4271;-71
2020/12/18 06:10:45;0.00;0.00;0.62;0.00;0.00;0.62;;;;;25.90;36.00;;;;;;2244784;61;7445;-71
2020/12/18 06:13:11;0.00;0.00;0.62;0.00;0.00;0.62;;;;;26.00;35.90;;;;;;2243980;61;6108;-70
2020/12/18 06:15:38;0.00;0.00;0.62;0.00;0.00;0.62;;;;;26.10;35.80;;;;;;2249476;61;6179;-69
2020/12/18 06:18:05;0.00;0.00;0.62;0.00;0.00;0.62;;;;;26.10;35.70;;;;;;2244932;61;5919;-70
2020/12/18 06:20:35;0.00;0.00;0.62;0.00;0.00;0.62;;;;;26.10;35.60;;;;;;2251084;61;7803;-69
2020/12/18 06:23:04;0.00;0.00;0.62;0.00;0.00;0.62;;;;;26.20;35.60;;;;;;2245820;61;5818;-71
2020/12/18 06:25:31;0.00;0.00;0.62;0.00;0.00;0.62;;;;;26.20;35.50;;;;;;2246879;61;7569;-69
2020/12/18 06:28:02;0.00;0.00;0.62;0.00;0.00;0.62;;;;;26.30;35.50;;;;;;2245173;61;4133;-71
2020/12/18 06:30:29;0.00;0.00;0.62;0.00;0.00;0.62;;;;;26.30;35.40;;;;;;2247482;61;2523;-69
2020/12/18 06:32:56;0.00;0.00;0.62;0.00;0.00;0.62;;;;;26.30;35.50;;;;;;2245623;61;4242;-73
2020/12/18 06:35:34;0.00;0.00;0.62;0.00;0.00;0.62;;;;;26.30;35.50;;;;;;2244964;61;3556;-70
2020/12/18 06:38:21;0.00;0.00;0.62;0.00;0.00;0.62;;;;;26.30;35.40;;;;;;2249691;61;5930;-71
2020/12/18 06:40:47;0.00;0.00;0.62;0.00;0.00;0.62;;;;;26.40;35.40;;;;;;2242789;61;7930;-72
2020/12/18 06:43:13;0.00;0.00;0.62;0.00;0.00;0.62;;;;;26.40;35.40;;;;;;2242362;61;6006;-71
2020/12/18 06:45:40;0.00;0.00;0.62;0.00;0.00;0.62;;;;;26.40;35.40;;;;;;2243524;61;4334;-71
2020/12/18 06:48:26;0.00;0.00;0.62;0.00;0.00;0.62;;;;;26.40;35.40;;;;;;2242554;61;4326;-71
2020/12/18 06:50:52;0.00;0.00;0.62;0.00;0.00;0.62;;;;;26.40;35.40;;;;;;2243544;61;5930;-70
2020/12/18 06:53:19;0.00;0.00;0.62;0.00;0.00;0.62;;;;;26.50;35.50;;;;;;2246496;61;4164;-71
2020/12/18 06:55:46;0.00;0.00;0.62;0.00;0.00;0.62;;;;;26.50;35.40;;;;;;2246913;61;7821;-72
2020/12/18 06:58:17;0.00;0.00;0.62;0.00;0.00;0.62;;;;;26.50;35.40;;;;;;2249956;61;7885;-70
2020/12/18 07:00:55;0.00;0.00;0.62;0.00;0.00;0.62;;;;;26.50;35.40;;;;;;2244716;61;4350;-72
2020/12/18 07:03:32;0.00;0.00;0.62;0.00;0.00;0.62;;;;;26.50;35.60;;;;;;2246311;61;5959;-71
2020/12/18 07:06:03;11082.00;0.04;19.82;0.00;0.00;0.62;;;;;26.50;35.70;;;;;;2250731;61;5951;-70
2020/12/18 07:08:35;0.00;0.00;0.62;0.00;0.00;0.62;;;;;26.60;35.70;;;;;;2250342;61;4269;-71
2020/12/18 07:11:06;0.00;0.00;0.62;0.00;0.00;0.62;;;;;26.60;35.70;;;;;;2248860;61;4265;-73
2020/12/18 07:13:34;0.00;0.00;0.62;0.00;0.00;0.62;;;;;26.80;35.90;;;;;;2247861;61;4260;-68
2020/12/18 07:16:09;0.00;0.00;0.62;0.00;0.00;0.62;;;;;26.90;35.90;;;;;;2253229;61;7761;-69
2020/12/18 07:18:38;0.00;0.00;0.62;0.00;0.00;0.62;;;;;27.10;35.60;;;;;;2245922;61;5739;-64
2020/12/18 07:21:08;0.00;0.00;0.62;0.00;0.00;0.62;;;;;27.30;35.60;;;;;;2248460;61;7719;-64
2020/12/18 07:23:37;0.00;0.00;0.62;0.00;0.00;0.62;;;;;27.40;35.60;;;;;;2252338;61;8345;-64
2020/12/18 07:26:09;0.00;0.00;0.62;0.00;0.00;0.62;;;;;27.70;35.50;;;;;;2251344;61;7833;-64
2020/12/18 07:28:37;0.00;0.00;0.62;0.00;0.00;0.62;;;;;27.80;35.10;;;;;;2248825;61;7680;-64
2020/12/18 07:31:12;0.00;0.00;0.62;0.00;0.00;0.62;;;;;28.00;35.20;;;;;;2244549;61;7569;-64
2020/12/18 07:33:38;0.00;0.00;0.62;0.00;0.00;0.62;;;;;28.00;35.20;;;;;;2249690;61;7457;-64
2020/12/18 07:36:05;269775.00;0.90;465.96;197846.00;0.66;342.22;;;;;28.10;34.70;;;;;;2246930;61;5723;-64
2020/12/18 07:38:33;0.00;0.00;0.62;0.00;0.00;0.62;;;;;28.10;35.20;;;;;;2243513;61;7834;-64
2020/12/18 07:41:06;0.00;0.00;0.62;0.00;0.00;0.62;;;;;28.20;35.20;;;;;;2248573;61;8249;-65
2020/12/18 07:43:34;0.00;0.00;0.62;0.00;0.00;0.62;;;;;28.20;35.20;;;;;;2241826;61;7638;-64
2020/12/18 07:46:08;0.00;0.00;0.62;0.00;0.00;0.62;;;;;28.30;35.30;;;;;;2244967;61;7662;-65
2020/12/18 07:48:40;103598.00;0.35;179.78;4663.00;0.02;8.70;;;;;28.40;35.10;;;;;;2248366;61;7977;-65
2020/12/18 07:51:16;0.00;0.00;0.62;0.00;0.00;0.62;;;;;28.50;34.40;;;;;;2243839;61;7899;-65
2020/12/18 07:53:43;233269.00;0.78;403.17;127525.00;0.43;221.06;;;;;28.60;34.50;;;;;;2248509;61;8062;-65
2020/12/18 07:56:21;312373.00;1.04;539.19;58665.00;0.20;102.17;;;;;28.90;34.20;;;;;;2245722;61;8161;-65
2020/12/18 07:59:04;0.00;0.00;0.62;0.00;0.00;0.62;;;;;28.90;33.90;;;;;;2248924;61;7733;-64
2020/12/18 08:01:35;0.00;0.00;0.62;0.00;0.00;0.62;;;;;28.90;33.90;;;;;;2249010;61;8769;-64
2020/12/18 08:04:12;0.00;0.00;0.62;0.00;0.00;0.62;;;;;29.10;33.90;;;;;;2241500;61;7726;-65
2020/12/18 08:06:40;0.00;0.00;0.62;0.00;0.00;0.62;;;;;29.30;33.60;;;;;;2245052;61;7855;-65
2020/12/18 08:09:19;0.00;0.00;0.62;0.00;0.00;0.62;;;;;29.40;33.50;;;;;;2244112;61;6778;-65
2020/12/18 08:11:48;0.00;0.00;0.62;0.00;0.00;0.62;;;;;29.50;33.40;;;;;;2242522;61;7889;-64
2020/12/18 08:14:15;0.00;0.00;0.62;0.00;0.00;0.62;;;;;29.60;33.30;;;;;;2247236;61;5964;-67
2020/12/18 08:16:48;0.00;0.00;0.62;0.00;0.00;0.62;;;;;29.60;33.30;;;;;;2249311;61;7874;-67
2020/12/18 08:19:14;0.00;0.00;0.62;0.00;0.00;0.62;;;;;29.70;33.40;;;;;;2239028;61;7892;-66
2020/12/18 08:21:46;0.00;0.00;0.62;0.00;0.00;0.62;;;;;29.80;33.20;;;;;;2245367;61;7904;-65
2020/12/18 08:24:36;0.00;0.00;0.62;0.00;0.00;0.62;;;;;30.10;32.70;;;;;;2245474;61;7922;-65
2020/12/18 08:27:10;0.00;0.00;0.62;0.00;0.00;0.62;;;;;30.00;32.90;;;;;;2242232;61;7685;-63
2020/12/18 08:29:39;0.00;0.00;0.62;0.00;0.00;0.62;;;;;29.90;33.00;;;;;;2244674;61;7894;-64
2020/12/18 08:32:07;38451.00;0.13;67.21;0.00;0.00;0.62;;;;;29.90;33.00;;;;;;2246637;61;8074;-63
2020/12/18 08:34:39;0.00;0.00;0.62;0.00;0.00;0.62;;;;;29.90;33.10;;;;;;2248328;61;8627;-64
2020/12/18 08:37:09;0.00;0.00;0.62;0.00;0.00;0.62;;;;;29.90;33.20;;;;;;2238083;61;8280;-64
2020/12/18 08:39:35;0.00;0.00;0.62;0.00;0.00;0.62;;;;;29.90;33.60;;;;;;2245822;61;7742;-63
2020/12/18 08:42:03;0.00;0.00;0.62;0.00;0.00;0.62;;;;;29.90;33.60;;;;;;2243008;61;6156;-63
2020/12/18 08:44:41;0.00;0.00;0.62;0.00;0.00;0.62;;;;;30.10;33.20;;;;;;2245742;61;6399;-63
2020/12/18 08:47:28;0.00;0.00;0.62;0.00;0.00;0.62;;;;;30.20;33.00;;;;;;2247272;61;7908;-65
2020/12/18 08:49:57;0.00;0.00;0.62;0.00;0.00;0.62;;;;;30.10;33.30;;;;;;2241949;61;7737;-64
2020/12/18 08:52:25;0.00;0.00;0.62;0.00;0.00;0.62;;;;;30.10;33.40;;;;;;2244833;61;7827;-64
2020/12/18 08:55:06;0.00;0.00;0.62;0.00;0.00;0.62;;;;;30.10;33.30;;;;;;2236354;61;8557;-64
2020/12/18 08:57:36;0.00;0.00;0.62;0.00;0.00;0.62;;;;;30.10;33.60;;;;;;2241248;61;7604;-65
2020/12/18 09:00:08;0.00;0.00;0.62;0.00;0.00;0.62;;;;;30.20;33.30;;;;;;2245656;61;7893;-64
2020/12/18 09:02:47;0.00;0.00;0.62;0.00;0.00;0.62;;;;;30.30;33.30;;;;;;2248148;61;7942;-63
2020/12/18 09:05:22;0.00;0.00;0.62;0.00;0.00;0.62;;;;;30.40;32.90;;;;;;2248836;61;7618;-64
2020/12/18 09:08:08;0.00;0.00;0.62;0.00;0.00;0.62;;;;;30.40;32.90;;;;;;2246053;61;7229;-63
2020/12/18 09:10:51;0.00;0.00;0.62;0.00;0.00;0.62;;;;;30.60;32.60;;;;;;2246829;61;7618;-67
2020/12/18 09:13:30;0.00;0.00;0.62;0.00;0.00;0.62;;;;;30.50;32.70;;;;;;2245547;61;7863;-63
2020/12/18 09:16:02;0.00;0.00;0.62;0.00;0.00;0.62;;;;;30.50;32.70;;;;;;2243069;61;7880;-62
2020/12/18 09:18:31;0.00;0.00;0.62;0.00;0.00;0.62;;;;;30.40;32.90;;;;;;2246107;61;7855;-61
2020/12/18 09:21:08;0.00;0.00;0.62;0.00;0.00;0.62;;;;;30.30;33.10;;;;;;2246191;61;7785;-64
2020/12/18 09:23:34;0.00;0.00;0.62;0.00;0.00;0.62;;;;;30.20;33.30;;;;;;2247914;61;7882;-62
2020/12/18 09:26:23;0.00;0.00;0.62;0.00;0.00;0.62;;;;;30.10;33.50;;;;;;2243295;61;7574;-64
2020/12/18 09:28:50;0.00;0.00;0.62;0.00;0.00;0.62;;;;;29.90;33.70;;;;;;2237196;61;7766;-64
2020/12/18 09:31:16;0.00;0.00;0.62;0.00;0.00;0.62;;;;;29.80;34.00;;;;;;2241977;61;7492;-62
2020/12/18 09:33:42;0.00;0.00;0.62;0.00;0.00;0.62;;;;;29.70;34.10;;;;;;2243214;61;8085;-62
2020/12/18 09:36:11;0.00;0.00;0.62;0.00;0.00;0.62;;;;;29.80;34.20;;;;;;2243078;61;7672;-63
2020/12/18 09:38:42;0.00;0.00;0.62;0.00;0.00;0.62;;;;;29.60;34.10;;;;;;2239153;61;7664;-63
2020/12/18 09:41:12;0.00;0.00;0.62;0.00;0.00;0.62;;;;;29.50;34.20;;;;;;2244830;61;7740;-63
2020/12/18 09:43:38;0.00;0.00;0.62;0.00;0.00;0.62;;;;;29.40;34.90;;;;;;2242133;61;5885;-67
2020/12/18 09:46:12;0.00;0.00;0.62;0.00;0.00;0.62;;;;;29.40;34.60;;;;;;2242007;61;7325;-67
2020/12/18 09:48:44;0.00;0.00;0.62;0.00;0.00;0.62;;;;;29.40;34.70;;;;;;2246310;61;7498;-67
2020/12/18 09:51:11;0.00;0.00;0.62;0.00;0.00;0.62;;;;;29.40;34.70;;;;;;2247215;61;7779;-67
2020/12/18 09:53:38;0.00;0.00;0.62;0.00;0.00;0.62;;;;;29.50;35.00;;;;;;2249274;61;7656;-67
2020/12/18 09:56:09;0.00;0.00;0.62;0.00;0.00;0.62;;;;;29.40;34.90;;;;;;2247372;61;8120;-67
2020/12/18 09:58:36;0.00;0.00;0.62;0.00;0.00;0.62;;;;;29.50;35.00;;;;;;2242945;61;7832;-66
2020/12/18 10:01:03;0.00;0.00;0.62;0.00;0.00;0.62;;;;;29.40;35.00;;;;;;2244127;61;7861;-68
2020/12/18 10:03:33;0.00;0.00;0.62;0.00;0.00;0.62;;;;;29.50;34.80;;;;;;2246440;61;7904;-65
2020/12/18 10:05:59;0.00;0.00;0.62;0.00;0.00;0.62;;;;;29.60;34.80;;;;;;2246272;61;7725;-67
2020/12/18 10:08:26;0.00;0.00;0.62;0.00;0.00;0.62;;;;;29.60;34.60;;;;;;2246768;61;7566;-67
2020/12/18 10:10:52;0.00;0.00;0.62;0.00;0.00;0.62;;;;;29.60;34.60;;;;;;2250978;61;7840;-67
2020/12/18 10:13:18;0.00;0.00;0.62;0.00;0.00;0.62;;;;;29.60;34.60;;;;;;2246918;61;8201;-67
2020/12/18 10:15:45;0.00;0.00;0.62;0.00;0.00;0.62;;;;;29.50;34.70;;;;;;2246517;61;7654;-68
2020/12/18 10:18:11;0.00;0.00;0.62;0.00;0.00;0.62;;;;;29.50;34.80;;;;;;2250209;61;5813;-65
2020/12/18 10:20:37;0.00;0.00;0.62;0.00;0.00;0.62;;;;;29.40;34.80;;;;;;2249684;61;7142;-66
2020/12/18 10:23:07;0.00;0.00;0.62;0.00;0.00;0.62;;;;;29.50;34.80;;;;;;2251716;61;5473;-66
2020/12/18 10:25:34;0.00;0.00;0.62;0.00;0.00;0.62;;;;;29.30;34.90;;;;;;2249885;61;5982;-67
2020/12/18 10:28:04;0.00;0.00;0.62;0.00;0.00;0.62;;;;;29.30;35.10;;;;;;2250656;61;7768;-67
2020/12/18 10:30:30;127934.00;0.43;221.77;35006.00;0.12;61.25;;;;;29.30;35.00;;;;;;2247152;61;7804;-68
2020/12/18 10:32:56;0.00;0.00;0.62;0.00;0.00;0.62;;;;;29.20;35.10;;;;;;2250989;61;7695;-68
2020/12/18 10:35:23;0.00;0.00;0.62;0.00;0.00;0.62;;;;;29.10;35.20;;;;;;2250429;61;7929;-67
2020/12/18 10:37:50;0.00;0.00;0.62;0.00;0.00;0.62;;;;;29.20;35.40;;;;;;2246894;61;7823;-67
2020/12/18 10:40:16;0.00;0.00;0.62;0.00;0.00;0.62;;;;;29.10;35.50;;;;;;2247028;61;7564;-67
2020/12/18 10:42:43;0.00;0.00;0.62;0.00;0.00;0.62;;;;;29.00;35.50;;;;;;2246356;61;5903;-67
2020/12/18 10:45:09;0.00;0.00;0.62;0.00;0.00;0.62;;;;;29.10;35.50;;;;;;2246109;61;7602;-65
2020/12/18 10:47:39;0.00;0.00;0.62;0.00;0.00;0.62;;;;;29.10;35.50;;;;;;2246826;61;7554;-65
2020/12/18 10:50:06;0.00;0.00;0.62;0.00;0.00;0.62;;;;;29.20;35.50;;;;;;2246998;61;7439;-65